Time;durP1;ratioP1;P1;durP2;ratioP2;P2;SDS_P1;SDS_P2;PMS_P1;PMS_P2;Temp;Humidity;BMP_temperature;BMP_pressure;BME280_temperature;BME280_humidity;BME280_pressure;Samples;Min_cycle;Max_cycle;Signal;HPM_P1;HPM_P2
2023/10/01 00:00:42;;;;;;;7.32;5.97;;;13.40;99.90;;;-141.84;69.54;20287.41;4983390;28;20239;-62
2023/10/01 00:03:11;;;;;;;8.95;5.82;;;13.40;99.90;;;-141.84;69.95;20309.75;4983499;28;20320;-62
2023/10/01 00:05:41;;;;;;;7.60;5.37;;;13.40;99.90;;;-141.84;69.52;20301.63;4983643;28;20230;-62
2023/10/01 00:08:12;;;;;;;8.65;6.05;;;13.40;99.90;;;-141.84;70.06;20311.78;4978094;28;20385;-62
2023/10/01 00:10:42;;;;;;;7.25;5.43;;;13.40;99.90;;;-141.84;70.35;20279.28;4983343;28;20238;-62
2023/10/01 00:13:14;;;;;;;7.07;5.15;;;13.40;99.90;;;-141.84;70.94;20287.41;4984502;28;20207;-62
2023/10/01 00:15:42;;;;;;;8.50;5.25;;;13.40;99.90;;;-141.84;70.72;20289.44;4983469;28;20388;-62
2023/10/01 00:18:11;;;;;;;11.40;5.50;;;13.30;99.90;;;-141.84;70.59;20301.63;4979148;28;20730;-61
2023/10/01 00:20:39;;;;;;;6.68;5.00;;;13.30;99.90;;;-141.84;70.48;20289.44;4983357;28;20235;-61
2023/10/01 00:23:07;;;;;;;10.30;5.20;;;13.30;99.90;;;-141.84;69.02;20301.63;4983758;28;20234;-63
2023/10/01 00:25:36;;;;;;;7.28;4.80;;;13.30;99.90;;;-141.84;70.17;20263.00;4983955;28;20243;-64
2023/10/01 00:28:08;;;;;;;5.75;4.57;;;13.30;99.90;;;-141.84;70.63;20281.31;4976940;28;20931;-62
2023/10/01 00:30:38;;;;;;;6.47;4.70;;;13.30;99.90;;;-141.84;71.00;20260.97;4983661;28;20258;-61
2023/10/01 00:33:10;;;;;;;9.03;5.20;;;13.20;99.90;;;-141.84;71.55;20212.19;4983098;28;20277;-62
2023/10/01 00:35:40;;;;;;;6.80;4.78;;;13.20;99.90;;;-141.84;72.42;20232.53;4982917;28;20239;-62
2023/10/01 00:38:10;;;;;;;6.80;4.75;;;13.10;99.90;;;-141.84;73.20;20200.00;4978362;28;20315;-62
2023/10/01 00:40:42;;;;;;;11.43;5.20;;;13.10;99.90;;;-141.84;73.29;20208.13;4983601;28;20614;-62
2023/10/01 00:43:11;;;;;;;8.30;5.87;;;13.00;99.90;;;-141.84;73.57;20185.78;4984347;28;20266;-62
2023/10/01 00:45:40;;;;;;;13.00;5.97;;;13.00;99.90;;;-141.84;73.87;20224.41;4983019;28;20310;-62
2023/10/01 00:48:11;;;;;;;9.20;5.90;;;13.00;99.90;;;-141.84;74.27;20204.06;4975610;28;20239;-61
2023/10/01 00:50:40;;;;;;;9.55;5.47;;;13.00;99.90;;;-141.84;74.94;20244.72;4995759;28;20639;-61
2023/10/01 00:53:10;;;;;;;10.13;6.30;;;12.90;99.90;;;-141.84;75.36;20202.03;4988995;28;20266;-63
2023/10/01 00:55:39;;;;;;;8.30;5.30;;;13.00;99.90;;;-141.84;75.46;20204.06;4983343;28;20702;-62
2023/10/01 00:58:10;;;;;;;8.20;6.00;;;13.00;99.90;;;-141.84;75.75;20204.06;4976297;28;20707;-62
2023/10/01 01:00:42;;;;;;;11.13;6.07;;;13.00;99.90;;;-141.84;74.43;20265.03;4982811;28;20247;-62
2023/10/01 01:03:18;;;;;;;10.53;5.90;;;13.10;99.90;;;-141.84;73.31;20279.28;4983057;28;20621;-62
2023/10/01 01:05:57;;;;;;;11.73;6.33;;;13.20;99.90;;;-141.84;73.15;20285.38;4975602;28;20230;-62
2023/10/01 01:08:33;;;;;;;7.73;5.87;;;13.20;99.90;;;-141.84;73.39;20269.13;4983411;28;20293;-63
2023/10/01 01:11:02;;;;;;;9.23;5.70;;;13.20;99.90;;;-141.84;73.84;20260.97;4983243;28;20309;-62
2023/10/01 01:13:33;;;;;;;12.83;6.23;;;13.20;99.90;;;-141.84;74.22;20248.78;4983046;28;20630;-62
2023/10/01 01:16:05;;;;;;;10.17;6.17;;;13.20;99.90;;;-141.84;74.03;20252.84;4976113;28;20285;-63
2023/10/01 01:18:36;;;;;;;12.33;6.10;;;13.20;99.90;;;-141.84;74.25;20236.59;4982674;28;20235;-62
2023/10/01 01:21:09;;;;;;;9.13;5.93;;;13.20;99.90;;;-141.84;74.82;20228.47;4983269;28;20262;-62
2023/10/01 01:23:41;;;;;;;11.65;5.82;;;13.20;99.90;;;-141.84;75.09;20226.44;4987281;28;20234;-62
2023/10/01 01:26:10;;;;;;;8.33;6.13;;;13.20;99.90;;;-141.84;74.10;20265.03;4981171;28;20250;-61
2023/10/01 01:28:38;;;;;;;10.23;5.97;;;13.20;99.90;;;-141.84;73.45;20246.75;4986603;28;20242;-63
2023/10/01 01:31:08;;;;;;;15.77;6.40;;;13.20;99.90;;;-141.84;73.15;20260.97;4986980;28;20262;-62
2023/10/01 01:33:44;;;;;;;8.83;5.97;;;13.20;99.90;;;-141.84;73.85;20244.72;4986034;28;20718;-63
2023/10/01 01:36:13;;;;;;;11.90;5.63;;;13.20;99.90;;;-141.84;73.52;20246.75;4983097;28;20797;-62
2023/10/01 01:39:10;;;;;;;7.95;5.38;;;13.20;99.90;;;-141.84;73.99;20263.00;4987081;28;20238;-61
2023/10/01 01:41:42;;;;;;;13.63;6.07;;;13.30;99.90;;;-141.84;73.52;20244.72;4986808;28;20238;-62
2023/10/01 01:44:13;;;;;;;12.43;6.03;;;13.30;99.90;;;-141.84;73.86;20250.81;4982330;28;20309;-63
2023/10/01 01:46:47;;;;;;;8.60;5.80;;;13.30;99.90;;;-141.84;74.36;20238.63;4986733;28;20199;-62
2023/10/01 01:49:19;;;;;;;13.73;6.10;;;13.20;99.90;;;-141.84;73.71;20285.38;4986703;28;20246;-62
2023/10/01 01:51:59;;;;;;;11.20;5.43;;;13.30;99.90;;;-141.84;73.15;20287.41;4978100;28;20223;-63
2023/10/01 01:54:34;;;;;;;7.90;5.20;;;13.30;99.90;;;-141.84;73.94;20254.88;4986854;28;20231;-62
2023/10/01 01:57:02;;;;;;;12.37;5.93;;;13.30;99.90;;;-141.84;74.12;20273.19;4988252;28;20317;-62
2023/10/01 01:59:31;;;;;;;11.50;6.00;;;13.30;99.90;;;-141.84;74.46;20216.25;4987883;28;20239;-62
2023/10/01 02:02:00;;;;;;;9.37;6.03;;;13.30;99.90;;;-141.84;74.61;20244.72;4980364;28;20223;-62
2023/10/01 02:04:29;;;;;;;12.73;6.28;;;13.30;99.90;;;-141.84;73.57;20279.28;4988024;28;20299;-63
2023/10/01 02:06:57;;;;;;;13.18;5.95;;;13.30;99.90;;;-141.84;72.46;20299.59;4987522;28;20706;-62
2023/10/01 02:09:25;;;;;;;14.75;5.57;;;13.40;99.90;;;-141.84;72.20;20313.84;4988059;28;20314;-62
2023/10/01 02:11:55;;;;;;;8.80;5.53;;;13.40;99.90;;;-141.84;72.52;20297.56;4979870;28;20310;-62
2023/10/01 02:14:35;;;;;;;11.63;5.60;;;13.40;99.90;;;-141.84;73.36;20275.22;4987798;28;20266;-62
2023/10/01 02:17:15;;;;;;;7.40;5.38;;;13.40;99.90;;;-141.84;74.10;20271.16;4987537;28;20234;-62
2023/10/01 02:19:46;;;;;;;10.13;5.55;;;13.40;99.90;;;-141.84;73.61;20279.28;4986372;28;20247;-63
2023/10/01 02:22:17;;;;;;;8.13;5.40;;;13.10;99.90;;;-141.84;73.83;20273.19;4986667;28;20643;-62
2023/10/01 02:24:54;;;;;;;9.90;5.40;;;13.40;99.90;;;-141.84;74.01;20254.88;4987701;28;20241;-62
2023/10/01 02:27:26;;;;;;;11.02;5.70;;;13.30;99.90;;;-141.84;74.24;20218.31;4986970;28;20247;-63
2023/10/01 02:30:14;;;;;;;11.70;5.30;;;13.40;99.90;;;-141.84;73.08;20275.22;4980315;28;20228;-63
2023/10/01 02:33:15;;;;;;;11.48;5.97;;;13.40;99.90;;;-141.84;73.37;20283.34;4986626;28;20246;-63
2023/10/01 02:35:41;;;;;;;9.27;5.57;;;13.40;99.90;;;-141.84;73.46;20271.16;4986661;28;20262;-62
2023/10/01 02:40:57;;;;;;;9.77;5.80;;;13.40;99.90;;;-141.84;73.62;20273.19;4986866;28;20226;-63
2023/10/01 02:43:33;;;;;;;12.00;5.00;;;13.40;99.90;;;-141.84;73.25;20299.59;4987559;28;20246;-63
2023/10/01 02:46:07;;;;;;;6.87;4.87;;;13.40;99.90;;;-141.84;73.35;20258.94;4980276;28;20230;-63
2023/10/01 02:48:36;;;;;;;10.33;5.50;;;13.40;99.90;;;-141.84;72.92;20305.69;4986901;28;20238;-62
2023/10/01 02:51:15;;;;;;;9.23;5.32;;;13.40;99.90;;;-141.84;72.59;20287.41;4986651;28;20269;-61
2023/10/01 02:54:01;;;;;;;11.60;5.53;;;13.40;99.90;;;-141.84;72.25;20303.66;4986045;28;20719;-62
2023/10/01 02:56:32;;;;;;;12.83;5.07;;;13.40;99.90;;;-141.84;73.08;20265.03;4986255;28;20255;-62
2023/10/01 02:59:09;;;;;;;7.73;5.00;;;13.40;99.90;;;-141.84;73.88;20258.94;4987024;28;20234;-61
2023/10/01 03:01:42;;;;;;;8.97;4.87;;;13.40;99.90;;;-141.84;73.73;20238.63;4986399;28;20210;-62
2023/10/01 03:04:13;;;;;;;7.95;5.07;;;13.30;99.90;;;-141.84;73.57;20250.81;4983066;28;20294;-62
2023/10/01 03:06:47;;;;;;;9.73;5.20;;;13.30;99.90;;;-141.84;73.46;20254.88;4986134;28;20231;-62
2023/10/01 03:09:22;;;;;;;8.73;5.03;;;13.30;99.90;;;-141.84;74.38;20216.25;4986601;28;20247;-62
2023/10/01 03:11:53;;;;;;;12.23;5.05;;;13.30;99.90;;;-141.84;73.66;20258.94;4979750;28;20785;-63
2023/10/01 03:14:26;;;;;;;8.37;4.97;;;13.20;99.90;;;-141.84;73.74;20252.84;4986974;28;20235;-63
2023/10/01 03:16:54;;;;;;;12.63;4.90;;;13.30;99.90;;;-141.84;74.64;20224.41;4986773;28;20242;-62
2023/10/01 03:19:25;;;;;;;6.55;4.82;;;13.30;99.90;;;-141.84;74.59;20230.50;4986991;28;20211;-62
2023/10/01 03:24:45;;;;;;;8.75;5.05;;;13.30;99.90;;;-141.84;74.27;20256.91;4986562;28;20293;-62
2023/10/01 03:27:25;;;;;;;10.32;5.50;;;13.30;99.90;;;-141.84;74.15;20234.56;4986379;28;20587;-62
2023/10/01 03:30:05;;;;;;;10.80;4.57;;;13.30;99.90;;;-141.84;74.01;20240.66;4978093;28;20710;-62
2023/10/01 03:32:33;;;;;;;12.33;5.20;;;13.30;99.90;;;-141.84;73.64;20283.34;4986325;28;20314;-62
2023/10/01 03:35:08;;;;;;;11.90;4.67;;;13.40;99.90;;;-141.84;74.26;20244.72;4986586;28;20251;-62
2023/10/01 03:37:39;;;;;;;8.23;5.03;;;13.40;99.90;;;-141.84;74.40;20240.66;4985891;28;20234;-62
2023/10/01 03:40:18;;;;;;;7.90;4.43;;;13.30;99.90;;;-141.84;74.26;20246.75;4978851;28;20223;-62
2023/10/01 03:42:51;;;;;;;7.67;5.00;;;13.30;99.90;;;-141.84;74.61;20246.75;4966028;28;20241;-62
2023/10/01 03:45:41;;;;;;;9.20;4.73;;;13.40;99.90;;;-141.84;74.17;20210.16;4965899;28;20235;-62
2023/10/01 03:48:19;;;;;;;12.45;4.72;;;13.30;99.90;;;-141.84;74.52;20228.47;4960578;28;20299;-62
2023/10/01 03:50:47;;;;;;;6.60;4.55;;;13.30;99.90;;;-141.84;74.85;20216.25;4980265;28;20293;-62
2023/10/01 03:53:18;;;;;;;8.57;5.15;;;13.30;99.90;;;-141.84;75.17;20220.34;4984779;28;20227;-64
2023/10/01 03:55:54;;;;;;;8.98;4.63;;;13.30;99.90;;;-141.84;75.47;20226.44;4978724;28;20214;-64
2023/10/01 03:58:29;;;;;;;8.87;4.80;;;13.30;99.90;;;-141.84;75.75;20181.72;4986897;28;20207;-64
2023/10/01 04:01:15;;;;;;;6.90;4.80;;;13.20;99.90;;;-141.84;75.82;20208.13;4985900;28;20292;-64
2023/10/01 04:03:46;;;;;;;8.07;5.53;;;13.30;99.90;;;-141.84;73.73;20267.09;4985889;28;20309;-64
2023/10/01 04:06:15;;;;;;;8.40;4.82;;;13.30;99.90;;;-141.84;73.38;20263.00;4984604;28;20330;-64
2023/10/01 04:08:44;;;;;;;10.13;4.57;;;13.40;99.90;;;-141.84;74.01;20236.59;4985539;28;20294;-64
2023/10/01 04:11:15;;;;;;;6.50;4.68;;;13.40;99.90;;;-141.84;74.68;20285.38;4985342;28;20237;-63
2023/10/01 04:13:43;;;;;;;8.00;4.60;;;13.40;99.90;;;-141.84;74.78;20248.78;4985521;28;20211;-64
2023/10/01 04:16:15;;;;;;;9.35;4.55;;;13.40;99.90;;;-141.84;74.35;20281.31;4983306;28;20239;-64
2023/10/01 04:18:43;;;;;;;7.15;4.80;;;13.40;99.90;;;-141.84;73.66;20299.59;4985375;28;20228;-64
2023/10/01 04:21:25;;;;;;;9.57;4.75;;;13.50;99.90;;;-141.84;73.35;20289.44;4984676;28;20227;-64
2023/10/01 04:23:54;;;;;;;7.05;4.35;;;13.60;99.90;;;-141.84;73.23;20297.56;4979079;28;20249;-63
2023/10/01 04:26:23;;;;;;;7.23;4.70;;;13.60;99.90;;;-141.84;73.17;20256.91;4985235;28;20223;-63
2023/10/01 04:28:54;;;;;;;8.48;4.47;;;13.60;99.90;;;-141.84;73.34;20271.16;4985487;28;20227;-64
2023/10/01 04:34:10;;;;;;;8.10;4.80;;;13.60;99.90;;;-141.84;73.62;20236.59;4977384;28;20227;-63
2023/10/01 04:36:39;;;;;;;11.57;5.17;;;13.60;99.90;;;-141.84;73.75;20248.78;4985133;28;20699;-64
2023/10/01 04:39:07;;;;;;;9.13;4.90;;;13.50;99.90;;;-141.84;73.74;20277.25;4985084;28;20446;-64
2023/10/01 04:41:37;;;;;;;7.70;4.85;;;13.50;99.90;;;-141.84;72.96;20311.78;4984485;28;20802;-64
2023/10/01 04:44:13;;;;;;;9.45;4.88;;;13.50;99.90;;;-141.84;71.69;20293.50;4978307;28;20235;-63
2023/10/01 04:46:45;;;;;;;8.33;4.73;;;13.60;99.90;;;-141.84;73.08;20295.53;4985338;28;20203;-63
2023/10/01 04:49:27;;;;;;;7.88;4.80;;;13.60;99.90;;;-141.84;72.87;20273.19;4985193;28;20297;-64
2023/10/01 04:52:10;;;;;;;12.10;5.10;;;13.60;99.90;;;-141.84;72.75;20330.09;4973271;28;20246;-64
2023/10/01 04:54:40;;;;;;;8.80;4.83;;;13.50;99.90;;;-141.84;73.41;20291.47;4984591;28;20234;-64
2023/10/01 04:57:10;;;;;;;9.63;4.40;;;13.50;99.90;;;-141.84;73.25;20287.41;4984576;28;20251;-63
2023/10/01 04:59:56;;;;;;;7.27;4.37;;;13.50;99.90;;;-141.84;73.29;20275.22;4984670;28;20665;-61
2023/10/01 05:02:29;;;;;;;8.00;4.70;;;13.50;99.90;;;-141.84;72.57;20279.28;4985006;28;20255;-62
2023/10/01 05:05:09;;;;;;;7.22;4.97;;;13.50;99.90;;;-141.84;73.66;20279.28;4985101;28;20223;-62
2023/10/01 05:07:38;;;;;;;10.13;4.40;;;13.50;99.90;;;-141.84;74.16;20260.97;4984753;28;20211;-62
2023/10/01 05:10:08;;;;;;;7.90;4.47;;;13.50;99.90;;;-141.84;73.68;20309.75;4978138;28;20226;-62
2023/10/01 05:12:43;;;;;;;8.50;4.78;;;13.50;99.90;;;-141.84;73.69;20226.44;4984404;28;20257;-62
2023/10/01 05:15:21;;;;;;;8.93;4.27;;;13.40;99.90;;;-141.84;74.20;20265.03;4984455;28;20230;-62
2023/10/01 05:17:52;;;;;;;7.53;4.30;;;13.40;99.90;;;-141.84;73.64;20267.09;4977239;28;20243;-62
2023/10/01 05:20:21;;;;;;;7.23;4.20;;;13.50;99.90;;;-141.84;74.10;20265.03;4984412;28;20262;-63
2023/10/01 05:22:51;;;;;;;10.27;4.45;;;13.50;99.90;;;-141.84;74.31;20273.19;4984242;28;20221;-64
2023/10/01 05:25:19;;;;;;;8.10;4.13;;;13.50;99.90;;;-141.84;73.76;20305.69;4984929;28;20587;-61
2023/10/01 05:27:48;;;;;;;7.30;4.40;;;13.60;99.90;;;-141.84;73.66;20267.09;4977717;28;20985;-64
2023/10/01 05:30:38;;;;;;;7.07;4.40;;;13.60;99.90;;;-141.84;73.83;20289.44;4984323;28;20797;-63
2023/10/01 05:33:11;;;;;;;7.40;4.38;;;13.60;99.90;;;-141.84;73.48;20269.13;4984429;28;20270;-61
2023/10/01 05:35:44;;;;;;;9.43;4.60;;;13.60;99.90;;;-141.84;73.06;20283.34;4984254;28;20231;-61
2023/10/01 05:38:16;;;;;;;7.82;4.30;;;13.60;99.90;;;-141.84;72.10;20301.63;4983796;28;20231;-62
2023/10/01 05:40:44;;;;;;;7.55;4.40;;;13.70;99.90;;;-141.84;72.01;20358.56;4984618;28;20711;-62
2023/10/01 05:43:13;;;;;;;9.88;4.43;;;13.70;99.90;;;-141.84;72.25;20321.97;4984935;28;20242;-62
2023/10/01 05:45:47;;;;;;;8.48;4.03;;;13.80;99.90;;;-141.84;72.56;20289.44;4980344;28;20227;-62
2023/10/01 05:48:19;;;;;;;6.70;4.07;;;13.80;99.90;;;-141.84;71.23;20391.06;4983468;28;20958;-62
2023/10/01 05:50:49;;;;;;;8.43;4.05;;;13.80;99.90;;;-141.84;71.96;20315.88;4983776;28;20301;-61
2023/10/01 05:53:18;;;;;;;10.25;4.40;;;13.90;99.90;;;-141.84;71.51;20350.41;4982260;28;20251;-61
2023/10/01 05:55:47;;;;;;;6.20;4.18;;;14.00;99.90;;;-141.84;71.12;20389.03;4978319;28;20208;-62
2023/10/01 05:58:16;;;;;;;7.05;4.25;;;14.00;99.90;;;-141.84;71.65;20360.59;4983613;28;20227;-63
2023/10/01 06:00:56;;;;;;;7.63;4.18;;;14.00;99.90;;;-141.84;71.55;20382.94;4983275;28;20326;-62
2023/10/01 06:03:30;;;;;;;7.75;4.07;;;14.00;99.90;;;-141.84;72.01;20354.47;4982982;28;20231;-61
2023/10/01 06:05:59;;;;;;;5.80;4.10;;;14.00;99.90;;;-141.84;71.71;20321.97;4975602;28;20317;-62
2023/10/01 06:08:32;;;;;;;9.02;4.25;;;14.00;99.90;;;-141.84;72.60;20321.97;4985636;28;20231;-62
2023/10/01 06:11:13;;;;;;;7.50;4.00;;;14.00;99.90;;;-141.84;72.37;20309.75;4987232;28;20314;-62
2023/10/01 06:13:49;;;;;;;7.20;4.05;;;14.00;99.90;;;-141.84;72.89;20328.06;4986801;28;20207;-62
2023/10/01 06:16:23;;;;;;;7.43;4.18;;;14.00;99.90;;;-141.84;72.76;20354.47;4987495;28;20222;-62
2023/10/01 06:18:57;;;;;;;5.30;3.95;;;14.10;99.90;;;-141.84;72.52;20374.81;4986547;28;20231;-62
2023/10/01 06:21:31;;;;;;;9.73;4.10;;;14.10;99.90;;;-141.84;72.30;20362.63;4986773;28;20612;-62
2023/10/01 06:24:04;;;;;;;7.00;3.90;;;14.20;99.90;;;-141.84;71.46;20378.88;4978835;28;20258;-62
2023/10/01 06:26:36;;;;;;;10.63;4.30;;;14.20;99.90;;;-141.84;70.45;20423.59;4986598;28;20354;-61
2023/10/01 06:29:07;;;;;;;6.00;3.80;;;14.30;99.90;;;-141.84;69.86;20407.34;4986767;28;20242;-61
2023/10/01 06:31:52;;;;;;;6.75;3.70;;;14.30;99.90;;;-141.84;69.41;20443.91;4986571;28;20585;-63
2023/10/01 06:34:24;;;;;;;5.10;3.47;;;14.30;99.90;;;-141.84;69.78;20421.56;4987705;28;20222;-63
2023/10/01 06:36:57;;;;;;;7.57;3.83;;;14.40;99.90;;;-141.84;70.29;20427.66;4987272;28;20741;-62
2023/10/01 06:39:26;;;;;;;8.63;3.92;;;14.40;99.90;;;-141.84;70.35;20417.50;4987087;28;20600;-62
2023/10/01 06:42:18;;;;;;;6.72;3.50;;;14.40;99.90;;;-141.84;70.83;20403.25;4980247;28;20231;-62
2023/10/01 06:44:43;;;;;;;4.85;3.25;;;14.40;99.90;;;-141.84;70.78;20401.22;4987206;28;20232;-62
2023/10/01 06:47:15;;;;;;;7.22;3.95;;;14.50;99.90;;;-141.84;70.13;20506.94;4987129;28;20231;-63
2023/10/01 06:50:00;;;;;;;6.13;3.70;;;14.60;99.90;;;-141.84;68.13;20519.13;4986198;28;20211;-61
2023/10/01 06:52:35;;;;;;;7.45;3.65;;;14.50;99.90;;;-141.84;67.34;20569.94;4986230;28;20242;-64
2023/10/01 06:55:05;;;;;;;5.03;2.90;;;15.10;99.90;;;-141.84;66.69;20620.78;4987689;28;20290;-62
2023/10/01 06:57:33;;;;;;;6.55;3.28;;;15.30;99.90;;;-141.84;65.98;20630.94;4986676;28;20327;-62
2023/10/01 07:00:12;;;;;;;4.32;3.00;;;15.50;99.90;;;-141.84;64.75;20708.19;4979863;28;20239;-63
2023/10/01 07:02:42;;;;;;;7.05;3.08;;;15.60;99.90;;;-141.84;64.55;20718.34;4986830;28;20301;-62
2023/10/01 07:05:20;;;;;;;5.15;2.83;;;15.70;99.90;;;-141.84;63.80;20763.06;4986880;28;20253;-63
2023/10/01 07:07:49;;;;;;;5.45;3.17;;;15.90;99.90;;;-141.84;62.13;20767.13;4979969;28;20206;-62
2023/10/01 07:10:19;;;;;;;6.47;3.15;;;16.00;99.90;;;-141.84;62.00;20771.19;4986673;28;20266;-63
2023/10/01 07:12:58;;;;;;;8.10;3.40;;;16.00;99.90;;;-141.84;61.71;20799.66;4986400;28;20231;-62
2023/10/01 07:15:27;;;;;;;6.45;3.38;;;16.00;99.90;;;-141.84;61.20;20807.78;4985602;28;20779;-63
2023/10/01 07:17:57;;;;;;;4.97;3.00;;;16.10;99.90;;;-141.84;61.03;20848.44;4979596;28;20305;-63
2023/10/01 07:20:27;;;;;;;6.50;2.97;;;16.20;99.90;;;-141.84;61.48;20834.22;4986719;28;20262;-62
2023/10/01 07:22:56;;;;;;;6.07;3.25;;;16.40;99.90;;;-141.84;61.54;20840.31;4986893;28;20251;-62
2023/10/01 07:25:38;;;;;;;5.68;3.10;;;16.40;99.90;;;-141.84;61.51;20858.59;4987333;28;20203;-62
2023/10/01 07:28:12;;;;;;;5.10;2.80;;;16.50;99.90;;;-141.84;60.00;20907.41;4980006;28;20235;-62
2023/10/01 07:30:51;;;;;;;4.13;2.70;;;16.60;99.90;;;-141.84;59.85;20958.22;4986416;28;20665;-62
2023/10/01 07:33:20;;;;;;;5.95;2.97;;;16.60;99.90;;;-141.84;58.58;20990.75;4984765;28;20285;-62
2023/10/01 07:35:59;;;;;;;6.13;3.22;;;16.70;99.90;;;-141.84;57.88;20946.03;4979514;28;20257;-64
2023/10/01 07:38:32;;;;;;;5.00;2.85;;;16.90;99.90;;;-141.84;58.55;21011.09;4985364;28;20239;-63
2023/10/01 07:41:07;;;;;;;5.07;2.55;;;17.00;99.90;;;-141.84;57.09;21013.13;4985760;28;20315;-62
2023/10/01 07:43:37;;;;;;;5.18;2.97;;;17.10;99.90;;;-141.84;56.29;21045.63;4986092;28;20207;-62
2023/10/01 07:46:07;;;;;;;5.65;2.67;;;17.20;99.90;;;-141.84;56.38;21023.28;4979569;28;20218;-62
2023/10/01 07:48:38;;;;;;;5.38;2.70;;;17.20;99.90;;;-141.84;55.97;21063.94;4985963;28;20235;-62
2023/10/01 07:51:22;;;;;;;4.80;2.60;;;17.30;99.90;;;-141.84;57.14;21019.22;4985503;28;20227;-63
2023/10/01 07:53:52;;;;;;;4.13;2.40;;;17.20;99.90;;;-141.84;56.55;21065.97;4978626;28;20231;-62
2023/10/01 07:56:22;;;;;;;4.15;2.50;;;17.20;99.90;;;-141.84;56.34;21086.31;4985396;28;20227;-61
2023/10/01 07:58:57;;;;;;;4.72;2.60;;;17.30;99.90;;;-141.84;55.54;21065.97;4985168;28;20249;-62
2023/10/01 08:01:42;;;;;;;3.20;2.50;;;17.30;99.90;;;-141.84;55.52;21078.16;4986164;28;20202;-63
2023/10/01 08:04:50;;;;;;;3.80;2.42;;;17.30;99.90;;;-141.84;54.40;21133.06;4981733;28;20761;-63
2023/10/01 08:07:15;;;;;;;4.78;2.65;;;17.60;99.90;;;-141.84;55.23;21057.84;4985735;28;20318;-62
2023/10/01 08:09:46;;;;;;;5.32;2.75;;;17.50;99.90;;;-141.84;54.62;21108.66;4984237;28;20229;-62
2023/10/01 08:12:15;;;;;;;4.93;2.83;;;17.50;99.90;;;-141.84;55.79;21076.13;4985339;28;20235;-63
2023/10/01 08:15:15;;;;;;;6.68;2.42;;;17.50;99.90;;;-141.84;54.31;21137.13;4985390;28;20249;-62
2023/10/01 08:17:34;;;;;;;3.97;2.67;;;17.60;99.90;;;-141.84;54.67;21135.09;4985126;28;20902;-61
2023/10/01 08:20:15;;;;;;;4.63;2.80;;;17.70;99.90;;;-141.84;53.84;21190.00;4977960;28;20227;-63
2023/10/01 08:23:12;;;;;;;4.57;2.60;;;17.80;99.90;;;-141.84;53.17;21250.97;4985853;28;20237;-62
2023/10/01 08:25:34;;;;;;;5.97;3.20;;;18.00;99.90;;;-141.84;52.66;21238.78;4984916;28;20210;-62
2023/10/01 08:28:26;;;;;;;4.95;2.60;;;18.10;99.90;;;-141.84;53.21;21212.34;4979108;28;20298;-62
2023/10/01 08:31:42;;;;;;;5.63;2.70;;;18.00;99.90;;;-141.84;52.84;21224.56;4984308;28;20326;-62
2023/10/01 08:34:20;;;;;;;4.53;2.70;;;18.20;99.90;;;-141.84;53.60;21226.59;4978115;28;20318;-63
2023/10/01 08:36:42;;;;;;;3.50;2.47;;;18.30;99.90;;;-141.84;52.54;21303.84;4985016;28;20231;-63
2023/10/01 08:39:33;;;;;;;4.88;3.05;;;18.40;99.90;;;-141.84;51.82;21421.75;4985103;28;20270;-61
2023/10/01 08:42:08;;;;;;;8.00;3.38;;;18.70;99.90;;;-141.84;51.20;21391.28;4977510;28;20239;-62
2023/10/01 08:44:47;;;;;;;6.60;3.72;;;18.80;99.90;;;-141.84;50.80;21425.84;4985143;28;20629;-61
2023/10/01 08:47:31;;;;;;;6.38;2.55;;;18.90;99.90;;;-141.84;51.21;21423.81;4984364;28;20305;-63
2023/10/01 08:50:19;;;;;;;8.68;3.55;;;19.00;99.90;;;-141.84;51.42;21372.97;4977673;28;20234;-62
2023/10/01 08:52:55;;;;;;;6.35;3.08;;;18.80;99.90;;;-141.84;51.72;21334.34;4983716;28;20211;-61
2023/10/01 08:55:35;;;;;;;6.78;3.40;;;18.80;99.90;;;-141.84;53.11;21289.59;4985772;28;20207;-60
2023/10/01 08:58:15;;;;;;;4.13;2.55;;;18.50;99.90;;;-141.84;53.28;21265.22;4978389;28;21076;-62
2023/10/01 09:00:49;;;;;;;6.50;2.92;;;18.50;99.90;;;-141.84;53.32;21342.47;4983874;28;20230;-62
2023/10/01 09:03:28;;;;;;;6.78;3.20;;;18.60;99.90;;;-141.84;53.11;21358.75;4984777;28;20345;-62
2023/10/01 09:06:03;;;;;;;7.25;3.15;;;18.70;99.90;;;-141.84;52.82;21415.66;4977634;28;20237;-61
2023/10/01 09:08:42;;;;;;;3.60;2.72;;;18.90;99.90;;;-141.84;52.13;21440.06;4984605;28;20234;-61
2023/10/01 09:11:15;;;;;;;4.45;2.88;;;19.20;99.90;;;-141.84;51.30;21551.91;4984686;28;20219;-62
2023/10/01 09:13:51;;;;;;;4.53;2.85;;;19.50;99.90;;;-141.84;50.58;21647.47;4984752;28;20203;-61
2023/10/01 09:16:30;;;;;;;5.80;3.08;;;19.70;99.90;;;-141.84;51.12;21606.78;4985333;28;20207;-61
2023/10/01 09:19:29;;;;;;;4.93;3.28;;;19.90;99.90;;;-141.84;49.50;21647.47;4984684;28;20223;-62
2023/10/01 09:21:55;;;;;;;4.57;3.10;;;20.00;99.90;;;-141.84;49.33;21623.06;4971778;28;20246;-62
2023/10/01 09:24:38;;;;;;;11.27;3.80;;;20.00;99.90;;;-141.84;50.53;21596.63;4982869;28;20235;-62
2023/10/01 09:27:19;;;;;;;7.00;3.40;;;19.90;99.90;;;-141.84;51.08;21572.22;4982124;28;20235;-62
2023/10/01 09:29:57;;;;;;;6.32;3.13;;;19.80;99.90;;;-141.84;50.78;21553.94;4972335;28;20639;-63
2023/10/01 09:32:50;;;;;;;5.65;3.03;;;19.80;99.90;;;-141.84;50.61;21547.81;4982200;28;20223;-62
2023/10/01 09:35:30;;;;;;;6.53;3.78;;;19.80;99.90;;;-141.84;49.77;21627.13;4972563;28;20223;-60
2023/10/01 09:38:18;;;;;;;5.78;3.80;;;19.90;99.90;;;-141.84;50.16;21570.19;4975348;28;20726;-62
2023/10/01 09:40:51;;;;;;;4.53;3.30;;;19.80;99.90;;;-141.84;50.85;21531.56;4983400;28;20211;-63
2023/10/01 09:43:27;;;;;;;6.03;2.95;;;19.80;99.90;;;-141.84;50.82;21533.59;4985604;28;20234;-62
2023/10/01 09:45:58;;;;;;;5.57;3.60;;;19.70;99.90;;;-141.84;50.21;21562.06;4969069;28;20230;-63
2023/10/01 09:48:33;;;;;;;4.50;3.03;;;19.80;99.90;;;-141.84;50.94;21564.09;4986155;28;20235;-63
2023/10/01 09:51:08;;;;;;;5.80;3.28;;;19.80;99.90;;;-141.84;50.45;21629.16;4985965;28;20226;-62
2023/10/01 09:53:50;;;;;;;6.25;3.33;;;20.00;99.90;;;-141.84;49.93;21732.84;4985350;28;20356;-62
2023/10/01 09:56:29;;;;;;;8.07;3.22;;;20.20;99.90;;;-141.84;48.55;21667.78;4986474;28;20262;-62
2023/10/01 09:59:01;;;;;;;6.82;3.40;;;20.30;99.90;;;-141.84;48.53;21718.63;4985924;28;20234;-63
2023/10/01 10:01:33;;;;;;;6.05;3.10;;;20.30;99.90;;;-141.84;48.63;21655.59;4986412;28;20310;-65
2023/10/01 10:04:04;;;;;;;8.05;3.75;;;20.30;99.90;;;-141.84;49.61;21663.72;4978095;28;20207;-61
2023/10/01 10:06:34;;;;;;;4.72;3.17;;;20.30;99.90;;;-141.84;49.69;21722.69;4973714;28;20242;-62
2023/10/01 10:09:06;;;;;;;5.30;3.20;;;20.40;99.90;;;-141.84;47.80;21765.38;4966985;28;20231;-62
2023/10/01 10:11:38;;;;;;;8.45;3.38;;;20.60;99.90;;;-141.84;48.32;21783.69;4977338;28;20366;-62
2023/10/01 10:14:56;;;;;;;6.18;3.40;;;20.60;99.90;;;-141.84;47.92;21850.78;4978601;28;20468;-61
2023/10/01 10:17:25;;;;;;;5.95;3.33;;;20.90;99.90;;;-141.84;47.44;21895.53;4984914;28;20306;-61
2023/10/01 10:20:24;;;;;;;4.53;3.00;;;21.10;99.90;;;-141.84;47.97;21948.41;4975158;28;20249;-63
2023/10/01 10:23:13;;;;;;;4.25;2.90;;;21.20;99.90;;;-141.84;47.41;21980.94;4967856;28;20723;-62
2023/10/01 10:25:43;;;;;;;5.53;3.42;;;21.40;99.90;;;-141.84;46.35;22009.41;4981715;28;20714;-62
2023/10/01 10:28:12;;;;;;;5.43;3.08;;;21.50;99.90;;;-141.84;45.95;22088.72;4982186;28;20250;-63
2023/10/01 10:30:46;;;;;;;5.05;3.30;;;21.70;99.90;;;-141.84;45.54;22039.91;4979051;28;20231;-62
2023/10/01 10:33:29;;;;;;;6.53;4.03;;;21.70;99.90;;;-141.84;45.97;22070.41;4984699;28;20258;-61
2023/10/01 10:36:54;;;;;;;5.95;3.45;;;21.80;99.90;;;-141.84;45.32;22125.31;4975754;28;20243;-62
2023/10/01 10:40:12;;;;;;;5.10;3.33;;;22.00;99.90;;;-141.84;44.12;22241.22;4967912;28;20278;-62
2023/10/01 10:42:46;;;;;;;5.55;3.55;;;22.10;99.90;;;-141.84;44.38;22133.44;4985429;28;20269;-61
2023/10/01 10:45:23;;;;;;;5.05;3.40;;;22.00;99.90;;;-141.84;45.34;22084.66;4985512;28;20290;-61